Time;durP1;ratioP1;P1;durP2;ratioP2;P2;SDS_P1;SDS_P2;PMS_P1;PMS_P2;Temp;Humidity;BMP_temperature;BMP_pressure;BME280_temperature;BME280_humidity;BME280_pressure;Samples;Min_cycle;Max_cycle;Signal;HPM_P1;HPM_P2
2021/11/05 00:01:57;;;;;;;0.00;0.00;;;;;;;6.49;87.35;101780.56;5029309;28;20022;-69
2021/11/05 00:04:23;;;;;;;0.20;0.20;;;;;;;6.50;87.38;101778.81;5015503;28;20406;-67
2021/11/05 00:06:49;;;;;;;402.53;134.23;;;;;;;6.49;87.34;101783.16;5033369;28;20034;-67
2021/11/05 00:09:14;;;;;;;0.37;0.30;;;;;;;6.51;87.60;101783.22;5048622;28;20043;-67
2021/11/05 00:11:41;;;;;;;0.00;0.00;;;;;;;6.50;87.76;101782.34;5033575;28;20382;-67
2021/11/05 00:14:06;;;;;;;0.00;0.00;;;;;;;6.46;87.62;101776.06;5031348;28;20052;-67
2021/11/05 00:16:32;;;;;;;0.00;0.00;;;;;;;6.43;87.51;101780.16;5032454;28;20025;-68
2021/11/05 00:18:58;;;;;;;0.00;0.00;;;;;;;6.38;87.62;101778.97;5031788;28;20035;-68
2021/11/05 00:21:23;;;;;;;0.10;0.10;;;;;;;6.31;87.61;101781.22;5032922;28;20255;-67
2021/11/05 00:23:49;;;;;;;0.10;0.10;;;;;;;6.27;87.52;101775.72;5012544;28;20126;-68
2021/11/05 00:26:14;;;;;;;0.00;0.00;;;;;;;6.23;87.35;101784.16;5033205;28;20033;-68
2021/11/05 00:28:39;;;;;;;0.03;0.03;;;;;;;6.15;87.55;101779.38;5034277;28;20359;-67
2021/11/05 00:31:05;;;;;;;0.00;0.00;;;;;;;6.11;87.38;101787.78;5035078;28;20104;-67
2021/11/05 00:33:31;;;;;;;0.10;0.10;;;;;;;6.07;87.33;101793.63;5032953;28;20032;-68
2021/11/05 00:35:56;;;;;;;0.00;0.00;;;;;;;6.03;87.49;101795.13;5034231;28;20021;-67
2021/11/05 00:38:22;;;;;;;0.10;0.10;;;;;;;5.99;87.67;101805.22;5035595;28;20316;-67
2021/11/05 00:40:47;;;;;;;0.00;0.00;;;;;;;5.95;87.61;101814.53;5031975;28;20025;-68
2021/11/05 00:43:13;;;;;;;0.00;0.00;;;;;;;5.93;87.59;101813.53;5031535;28;20049;-67
2021/11/05 00:45:38;;;;;;;0.00;0.00;;;;;;;5.91;87.93;101813.44;5031193;28;20294;-67
2021/11/05 00:48:05;;;;;;;0.00;0.00;;;;;;;5.90;87.88;101816.84;5011804;28;20472;-68
2021/11/05 00:50:31;;;;;;;0.00;0.00;;;;;;;5.90;87.90;101821.13;5032490;28;20065;-68
2021/11/05 00:52:57;;;;;;;0.10;0.10;;;;;;;5.89;87.91;101816.72;5031732;28;20064;-68
2021/11/05 00:55:22;;;;;;;0.00;0.00;;;;;;;5.87;87.91;101824.41;5035402;28;20029;-67
2021/11/05 00:57:48;;;;;;;0.00;0.00;;;;;;;5.88;88.11;101823.66;5035639;28;20469;-67
2021/11/05 01:00:14;;;;;;;0.00;0.00;;;;;;;5.91;88.04;101828.13;5034708;28;20353;-67
2021/11/05 01:02:44;;;;;;;0.00;0.00;;;;;;;5.94;88.52;101830.00;5037184;28;20033;-67
2021/11/05 01:05:13;;;;;;;0.00;0.00;;;;;;;5.98;88.51;101839.81;5022620;28;20303;-69
2021/11/05 01:07:40;;;;;;;0.00;0.00;;;;;;;6.01;88.16;101832.19;5022897;28;20125;-67
2021/11/05 01:10:06;;;;;;;0.00;0.00;;;;;;;6.05;88.94;101831.63;5039329;28;20066;-67
2021/11/05 01:12:32;;;;;;;0.00;0.00;;;;;;;6.08;88.67;101831.81;5040602;28;20017;-67
2021/11/05 01:14:57;;;;;;;0.00;0.00;;;;;;;6.13;88.71;101830.41;5039217;28;20082;-68
2021/11/05 01:17:23;;;;;;;0.00;0.00;;;;;;;6.17;88.67;101832.38;5039817;28;20024;-67
2021/11/05 01:19:49;;;;;;;0.00;0.00;;;;;;;6.21;88.63;101832.59;5039906;28;20339;-68
2021/11/05 01:22:14;;;;;;;0.00;0.00;;;;;;;6.23;88.50;101826.66;5055209;28;20022;-68
2021/11/05 01:24:40;;;;;;;0.00;0.00;;;;;;;6.27;88.48;101826.06;5056215;28;20080;-67
2021/11/05 01:27:05;;;;;;;0.00;0.00;;;;;;;6.30;88.29;101835.75;5039098;28;20032;-68
2021/11/05 01:29:31;;;;;;;0.00;0.00;;;;;;;6.32;88.54;101842.88;5040135;28;20060;-68
2021/11/05 01:31:56;;;;;;;0.00;0.00;;;;;;;6.34;88.70;101840.34;5039400;28;20025;-68
2021/11/05 01:34:22;;;;;;;0.00;0.00;;;;;;;6.35;88.16;101841.25;5056048;28;20021;-67
2021/11/05 01:36:48;;;;;;;0.07;0.07;;;;;;;6.37;88.69;101839.63;5039354;28;20030;-67
2021/11/05 01:39:15;;;;;;;0.00;0.00;;;;;;;6.38;88.48;101842.34;5037920;28;20406;-67
2021/11/05 01:41:41;;;;;;;0.00;0.00;;;;;;;6.38;88.74;101850.16;5040025;28;20155;-69
2021/11/05 01:44:07;;;;;;;0.10;0.10;;;;;;;6.39;88.54;101851.03;5039127;28;20056;-68
2021/11/05 01:46:33;;;;;;;0.00;0.00;;;;;;;6.39;88.64;101849.34;5039372;28;20273;-68
2021/11/05 01:48:58;;;;;;;0.00;0.00;;;;;;;6.39;88.51;101851.94;5039470;28;20093;-68
2021/11/05 01:51:24;;;;;;;0.00;0.00;;;;;;;6.39;88.72;101849.34;5038438;28;20068;-67
2021/11/05 01:53:49;;;;;;;0.00;0.00;;;;;;;6.40;88.59;101852.81;5040179;28;20104;-68
2021/11/05 01:56:15;;;;;;;0.00;0.00;;;;;;;6.39;88.55;101862.34;5039566;28;20100;-68
2021/11/05 01:58:40;;;;;;;0.00;0.00;;;;;;;6.37;88.91;101858.75;5039854;28;20299;-67
2021/11/05 02:01:06;;;;;;;0.10;0.10;;;;;;;6.35;88.50;101864.66;5038780;28;20029;-67
2021/11/05 02:03:31;;;;;;;0.00;0.00;;;;;;;6.29;88.66;101866.06;5039603;28;20296;-68
2021/11/05 02:06:00;;;;;;;0.00;0.00;;;;;;;6.24;88.54;101870.09;5039472;28;20079;-67
2021/11/05 02:08:26;;;;;;;0.10;0.10;;;;;;;6.20;88.57;101875.91;5039253;28;20029;-68
2021/11/05 02:10:54;;;;;;;0.00;0.00;;;;;;;6.13;88.22;101871.13;5039308;28;20103;-68
2021/11/05 02:13:21;;;;;;;0.00;0.00;;;;;;;6.03;88.05;101870.53;5037964;28;20368;-67
2021/11/05 02:15:48;;;;;;;0.00;0.00;;;;;;;5.97;88.19;101867.50;5037388;28;20092;-67
2021/11/05 02:18:14;;;;;;;0.00;0.00;;;;;;;5.91;87.83;101874.91;5038669;28;20025;-67
2021/11/05 02:20:41;;;;;;;0.00;0.00;;;;;;;5.85;88.15;101879.75;5039136;28;20037;-69
2021/11/05 02:23:06;;;;;;;0.00;0.00;;;;;;;5.78;87.93;101873.22;5054695;28;20029;-68
2021/11/05 02:25:32;;;;;;;0.00;0.00;;;;;;;5.74;88.02;101881.66;5039333;28;20380;-69
2021/11/05 02:27:57;;;;;;;0.00;0.00;;;;;;;5.71;88.10;101881.41;5038305;28;20404;-67
2021/11/05 02:30:23;;;;;;;0.00;0.00;;;;;;;5.67;87.99;101879.44;5038407;28;20342;-68
2021/11/05 02:32:48;;;;;;;0.00;0.00;;;;;;;5.61;88.04;101886.03;5038941;28;20410;-68
2021/11/05 02:35:15;;;;;;;0.00;0.00;;;;;;;5.58;87.97;101890.13;5054650;28;20068;-68
2021/11/05 02:37:41;;;;;;;0.00;0.00;;;;;;;5.54;88.10;101889.03;5039066;28;20064;-68
2021/11/05 02:40:07;;;;;;;0.10;0.10;;;;;;;5.50;87.90;101887.03;5038369;28;20330;-67
2021/11/05 02:42:34;;;;;;;0.00;0.00;;;;;;;5.45;87.96;101885.81;5039013;28;20068;-69
2021/11/05 02:44:59;;;;;;;0.00;0.00;;;;;;;5.40;87.89;101885.53;5038000;28;20120;-67
2021/11/05 02:47:27;;;;;;;0.10;0.10;;;;;;;5.35;87.79;101890.41;5037723;28;20104;-68
2021/11/05 02:49:54;;;;;;;0.00;0.00;;;;;;;5.33;88.05;101892.00;5037764;28;20030;-68
2021/11/05 02:52:21;;;;;;;0.10;0.10;;;;;;;5.31;88.09;101891.03;5036838;28;20319;-69
2021/11/05 02:54:46;;;;;;;0.00;0.00;;;;;;;5.29;87.87;101891.72;5038271;28;20269;-68
2021/11/05 02:57:12;;;;;;;0.00;0.00;;;;;;;5.28;88.01;101908.09;5037157;28;20037;-68
2021/11/05 02:59:38;;;;;;;0.00;0.00;;;;;;;5.27;88.23;101893.28;5038475;28;20025;-68
2021/11/05 03:02:04;;;;;;;0.00;0.00;;;;;;;5.26;88.17;101895.00;5036908;28;20394;-68
2021/11/05 03:04:29;;;;;;;0.00;0.00;;;;;;;5.26;88.47;101897.59;5054488;28;20373;-68
2021/11/05 03:07:01;;;;;;;0.10;0.10;;;;;;;5.25;88.24;101895.81;5038395;28;20017;-68
2021/11/05 03:09:31;;;;;;;0.00;0.00;;;;;;;5.21;88.12;101901.56;5025917;28;20397;-69
2021/11/05 03:11:57;;;;;;;0.10;0.10;;;;;;;5.20;88.10;101904.97;5037666;28;20052;-69
2021/11/05 03:14:23;;;;;;;0.00;0.00;;;;;;;5.18;88.25;101903.97;5038561;28;20088;-69
2021/11/05 03:16:49;;;;;;;0.00;0.00;;;;;;;5.16;88.07;101903.84;5053414;28;20049;-69
2021/11/05 03:19:14;;;;;;;0.00;0.00;;;;;;;5.14;87.94;101912.34;5037067;28;20296;-68
2021/11/05 03:21:39;;;;;;;0.00;0.00;;;;;;;5.12;88.28;101909.66;5053968;28;20112;-69
2021/11/05 03:24:06;;;;;;;0.00;0.00;;;;;;;5.12;88.34;101913.94;5037154;28;20025;-69
2021/11/05 03:26:31;;;;;;;0.03;0.03;;;;;;;5.11;88.43;101923.41;5038033;28;20029;-68
2021/11/05 03:28:56;;;;;;;0.00;0.00;;;;;;;5.10;88.31;101919.00;5037051;28;20060;-69
2021/11/05 03:31:22;;;;;;;0.00;0.00;;;;;;;5.08;88.51;101921.53;5037772;28;20288;-69
2021/11/05 03:33:47;;;;;;;0.00;0.00;;;;;;;5.07;88.36;101918.81;5038088;28;20108;-69
2021/11/05 03:36:13;;;;;;;0.00;0.00;;;;;;;5.06;88.39;101933.47;5037614;28;20025;-68
2021/11/05 03:38:38;;;;;;;0.00;0.00;;;;;;;5.07;88.29;101935.31;5053799;28;20311;-68
2021/11/05 03:41:03;;;;;;;0.00;0.00;;;;;;;5.09;88.55;101935.41;5036785;28;20081;-68
2021/11/05 03:43:29;;;;;;;0.03;0.03;;;;;;;5.10;88.43;101937.19;5038033;28;20097;-69
2021/11/05 03:45:55;;;;;;;0.00;0.00;;;;;;;5.11;88.49;101943.31;5036920;28;20025;-68
2021/11/05 03:48:20;;;;;;;0.00;0.00;;;;;;;5.09;89.10;101936.31;5037726;28;20044;-69
2021/11/05 03:50:45;;;;;;;0.00;0.00;;;;;;;5.11;88.49;101948.50;5037747;28;20030;-68
2021/11/05 03:53:11;;;;;;;0.00;0.00;;;;;;;5.11;88.50;101945.91;5037515;28;20075;-68
2021/11/05 03:55:37;;;;;;;0.00;0.00;;;;;;;5.11;88.76;101956.28;5036946;28;20028;-68
2021/11/05 03:58:02;;;;;;;0.00;0.00;;;;;;;5.08;88.73;101950.09;5036740;28;20052;-68
2021/11/05 04:00:28;;;;;;;0.00;0.00;;;;;;;5.07;88.79;101953.50;5037425;28;20116;-68
2021/11/05 04:02:53;;;;;;;0.00;0.00;;;;;;;5.06;88.56;101950.78;5036715;28;20032;-68
2021/11/05 04:05:19;;;;;;;0.10;0.10;;;;;;;5.06;88.33;101963.75;5037691;28;20033;-69
2021/11/05 04:07:44;;;;;;;0.00;0.00;;;;;;;5.04;88.53;101960.16;5036732;28;20383;-68
2021/11/05 04:10:10;;;;;;;0.00;0.00;;;;;;;5.03;88.37;101968.72;5036872;28;20120;-69
2021/11/05 04:12:35;;;;;;;0.10;0.10;;;;;;;5.04;88.63;101974.03;5036433;28;20037;-68
2021/11/05 04:15:01;;;;;;;0.10;0.10;;;;;;;5.05;88.56;101978.41;5035971;28;20280;-69
2021/11/05 04:17:26;;;;;;;0.00;0.00;;;;;;;5.08;88.21;101985.53;5036495;28;20053;-70
2021/11/05 04:19:52;;;;;;;0.00;0.00;;;;;;;5.08;88.63;101983.84;5037092;28;20025;-70
2021/11/05 04:22:17;;;;;;;0.00;0.00;;;;;;;5.12;88.58;101989.25;5037090;28;20029;-69
2021/11/05 04:24:43;;;;;;;0.00;0.00;;;;;;;5.12;88.99;101987.56;5036924;28;20443;-69
2021/11/05 04:27:08;;;;;;;0.03;0.03;;;;;;;5.14;88.67;101990.25;5036398;28;20041;-69
2021/11/05 04:29:35;;;;;;;0.10;0.10;;;;;;;5.13;88.61;102004.03;5037272;28;20069;-69
2021/11/05 04:32:02;;;;;;;0.00;0.00;;;;;;;5.12;88.68;102003.13;5036769;28;20275;-68
2021/11/05 04:34:27;;;;;;;0.00;0.00;;;;;;;5.12;88.61;102005.72;5037308;28;20104;-69
2021/11/05 04:36:53;;;;;;;0.00;0.00;;;;;;;5.12;88.54;102005.72;5035436;28;20062;-69
2021/11/05 04:39:19;;;;;;;0.00;0.00;;;;;;;5.11;88.75;102003.03;5036836;28;20038;-69
2021/11/05 04:41:45;;;;;;;0.00;0.00;;;;;;;5.10;88.61;102017.69;5035839;28;20029;-69
2021/11/05 04:44:11;;;;;;;0.00;0.00;;;;;;;5.06;88.25;102018.28;5052634;28;20088;-69
2021/11/05 04:46:36;;;;;;;0.00;0.00;;;;;;;5.05;88.66;102019.97;5035944;28;20036;-69
2021/11/05 04:49:02;;;;;;;0.10;0.10;;;;;;;5.04;88.74;102028.56;5036106;28;20065;-68
2021/11/05 04:51:27;;;;;;;0.00;0.00;;;;;;;5.01;88.59;102022.25;5037032;28;20024;-68
2021/11/05 04:53:53;;;;;;;0.10;0.10;;;;;;;4.99;88.66;102029.03;5036704;28;20071;-69
2021/11/05 04:56:18;;;;;;;0.00;0.00;;;;;;;4.98;88.74;102032.44;5036939;28;20120;-69
2021/11/05 04:58:45;;;;;;;0.00;0.00;;;;;;;4.98;88.76;102043.69;5052679;28;20061;-69
2021/11/05 05:01:10;;;;;;;0.00;0.00;;;;;;;4.95;88.64;102041.81;5035381;28;20040;-68
2021/11/05 05:03:36;;;;;;;0.00;0.00;;;;;;;4.95;88.62;102049.59;5036375;28;20042;-68
2021/11/05 05:06:02;;;;;;;0.00;0.00;;;;;;;4.96;88.54;102045.28;5036526;28;20335;-68
2021/11/05 05:08:27;;;;;;;0.10;0.10;;;;;;;4.96;88.73;102058.28;5036485;28;20442;-68
2021/11/05 05:10:52;;;;;;;0.00;0.00;;;;;;;4.96;88.64;102050.47;5036259;28;20241;-69
2021/11/05 05:13:18;;;;;;;0.10;0.10;;;;;;;4.96;88.11;102058.28;5036840;28;20402;-68
2021/11/05 05:15:43;;;;;;;0.00;0.00;;;;;;;4.97;88.69;102061.78;5036532;28;20447;-68
2021/11/05 05:18:09;;;;;;;0.00;0.00;;;;;;;4.97;88.86;102065.25;5035930;28;20285;-68
2021/11/05 05:20:35;;;;;;;0.00;0.00;;;;;;;4.97;88.87;102067.84;5052593;28;20083;-68
2021/11/05 05:23:01;;;;;;;0.00;0.00;;;;;;;4.95;88.28;102062.56;5036051;28;20049;-68
2021/11/05 05:25:26;;;;;;;0.00;0.00;;;;;;;4.95;88.79;102070.38;5036729;28;20021;-68
2021/11/05 05:27:52;;;;;;;0.00;0.00;;;;;;;4.95;88.59;102075.56;5036213;28;20396;-68
2021/11/05 05:30:18;;;;;;;0.00;0.00;;;;;;;4.93;88.74;102081.44;5036431;28;20068;-67
2021/11/05 05:32:46;;;;;;;0.00;0.00;;;;;;;4.91;88.64;102076.13;5035581;28;20025;-68
2021/11/05 05:35:12;;;;;;;0.00;0.00;;;;;;;4.89;88.76;102079.38;5052241;28;20052;-68
2021/11/05 05:37:38;;;;;;;0.00;0.00;;;;;;;4.86;88.61;102081.78;5036429;28;20037;-68
2021/11/05 05:40:05;;;;;;;0.00;0.00;;;;;;;4.84;88.67;102086.84;5035544;28;20029;-68
2021/11/05 05:42:30;;;;;;;0.00;0.00;;;;;;;4.82;88.55;102083.25;5036021;28;20041;-68
2021/11/05 05:44:56;;;;;;;0.00;0.00;;;;;;;4.79;88.55;102090.78;5035550;28;20040;-68
2021/11/05 05:47:21;;;;;;;0.00;0.00;;;;;;;4.75;88.29;102099.16;5052978;28;20329;-68
2021/11/05 05:49:48;;;;;;;0.00;0.00;;;;;;;4.72;88.74;102093.78;5039319;28;20022;-68
2021/11/05 05:52:14;;;;;;;0.00;0.00;;;;;;;4.69;88.87;102099.63;5038855;28;20398;-68
2021/11/05 05:54:39;;;;;;;0.00;0.00;;;;;;;4.65;88.58;102097.59;5039938;28;20037;-69
2021/11/05 05:57:05;;;;;;;0.00;0.00;;;;;;;4.63;88.48;102107.88;5039148;28;20038;-67
2021/11/05 05:59:30;;;;;;;0.00;0.00;;;;;;;4.63;88.73;102104.38;5039565;28;20450;-69
2021/11/05 06:01:56;;;;;;;0.00;0.00;;;;;;;4.62;88.73;102110.34;5055033;28;20112;-68
2021/11/05 06:04:23;;;;;;;0.03;0.03;;;;;;;4.59;88.13;102116.22;5055623;28;20360;-69
2021/11/05 06:06:49;;;;;;;0.10;0.10;;;;;;;4.58;88.72;102116.09;5039504;28;20037;-68
2021/11/05 06:09:14;;;;;;;0.00;0.00;;;;;;;4.57;88.75;102119.47;5038689;28;20030;-68
2021/11/05 06:11:40;;;;;;;0.10;0.10;;;;;;;4.55;88.70;102127.19;5039573;28;20049;-67
2021/11/05 06:14:05;;;;;;;0.00;0.00;;;;;;;4.54;88.44;102130.53;5039428;28;20065;-68
2021/11/05 06:16:30;;;;;;;0.00;0.00;;;;;;;4.52;88.78;102137.31;5039178;28;20437;-68
2021/11/05 06:18:56;;;;;;;0.00;0.00;;;;;;;4.50;88.47;102132.00;5039260;28;20394;-68
2021/11/05 06:21:24;;;;;;;0.10;0.10;;;;;;;4.51;88.42;102145.88;5038100;28;20335;-68
2021/11/05 06:23:53;;;;;;;0.00;0.00;;;;;;;4.50;88.92;102144.97;5039587;28;20044;-68
2021/11/05 06:26:19;;;;;;;0.07;0.07;;;;;;;4.53;88.97;102144.28;5038927;28;20034;-67
2021/11/05 06:28:44;;;;;;;0.00;0.00;;;;;;;4.54;88.84;102151.28;5039284;28;20269;-69
2021/11/05 06:31:10;;;;;;;0.00;0.00;;;;;;;4.56;89.04;102154.91;5038459;28;20112;-69
2021/11/05 06:33:35;;;;;;;0.00;0.00;;;;;;;4.57;88.72;102154.13;5039125;28;20120;-68
2021/11/05 06:36:00;;;;;;;0.00;0.00;;;;;;;4.62;88.92;102162.25;5038638;28;20124;-68
2021/11/05 06:38:26;;;;;;;0.00;0.00;;;;;;;4.63;88.89;102162.38;5039038;28;20045;-68
2021/11/05 06:40:51;;;;;;;0.00;0.00;;;;;;;4.68;88.74;102163.59;5038771;28;20029;-67
2021/11/05 06:43:18;;;;;;;0.00;0.00;;;;;;;4.70;88.99;102160.19;5054162;28;20124;-67
2021/11/05 06:45:44;;;;;;;0.00;0.00;;;;;;;4.71;88.99;102173.28;5039203;28;20029;-67
2021/11/05 06:48:09;;;;;;;0.00;0.00;;;;;;;4.74;89.05;102180.41;5037434;28;20105;-67
2021/11/05 06:50:37;;;;;;;0.00;0.00;;;;;;;4.74;88.97;102181.28;5038869;28;20364;-68
2021/11/05 06:53:02;;;;;;;0.00;0.00;;;;;;;4.73;89.15;102184.69;5037615;28;20291;-67
2021/11/05 06:55:28;;;;;;;0.00;0.00;;;;;;;4.72;89.02;102190.66;5037629;28;20044;-67
2021/11/05 06:57:53;;;;;;;0.00;0.00;;;;;;;4.72;89.08;102188.06;5038590;28;20073;-68
2021/11/05 07:00:19;;;;;;;0.00;0.00;;;;;;;4.72;88.98;102195.88;5038734;28;20032;-68
2021/11/05 07:02:44;;;;;;;0.00;0.00;;;;;;;4.72;89.02;102198.47;5038547;28;20112;-67
2021/11/05 07:05:15;;;;;;;0.00;0.00;;;;;;;4.74;88.92;102211.56;5037482;28;20434;-67
2021/11/05 07:07:41;;;;;;;0.00;0.00;;;;;;;4.75;88.97;102210.75;5036993;28;20056;-68
2021/11/05 07:10:07;;;;;;;0.00;0.00;;;;;;;4.75;89.25;102211.69;5038323;28;20025;-68
2021/11/05 07:12:33;;;;;;;0.00;0.00;;;;;;;4.75;89.04;102211.69;5038574;28;20037;-68
2021/11/05 07:14:59;;;;;;;0.00;0.00;;;;;;;4.75;88.79;102223.75;5037677;28;20037;-67
2021/11/05 07:17:24;;;;;;;0.00;0.00;;;;;;;4.75;89.11;102232.44;5027910;28;20415;-67
2021/11/05 07:19:50;;;;;;;0.00;0.00;;;;;;;4.76;88.88;102233.31;5038156;28;20266;-67
2021/11/05 07:22:15;;;;;;;0.00;0.00;;;;;;;4.75;88.88;102234.13;5037034;28;20076;-67
2021/11/05 07:24:41;;;;;;;0.00;0.00;;;;;;;4.76;89.07;102241.13;5037924;28;20116;-67
2021/11/05 07:27:06;;;;;;;0.07;0.07;;;;;;;4.76;89.32;102254.09;5039845;28;20383;-67
2021/11/05 07:29:32;;;;;;;0.00;0.00;;;;;;;4.77;89.00;102253.28;5019064;28;20039;-68
2021/11/05 07:32:00;;;;;;;0.00;0.00;;;;;;;4.79;88.87;102262.09;5052360;28;20037;-69
2021/11/05 07:34:30;;;;;;;0.00;0.00;;;;;;;4.84;89.00;102268.53;5036643;28;20033;-67
2021/11/05 07:36:59;;;;;;;0.00;0.00;;;;;;;4.89;88.94;102261.09;5037837;28;20184;-67
2021/11/05 07:39:28;;;;;;;0.00;0.00;;;;;;;4.90;89.35;102271.59;5037439;28;20029;-68
2021/11/05 07:41:54;;;;;;;0.00;0.00;;;;;;;4.92;88.87;102270.00;5052890;28;20076;-68
2021/11/05 07:44:19;;;;;;;0.00;0.00;;;;;;;4.97;89.05;102279.84;5037307;28;20060;-69
2021/11/05 07:46:47;;;;;;;0.00;0.00;;;;;;;4.99;89.08;102281.78;5036200;28;20388;-68
2021/11/05 07:49:13;;;;;;;0.00;0.00;;;;;;;5.02;89.01;102288.88;5036411;28;20410;-68
2021/11/05 07:51:38;;;;;;;0.00;0.00;;;;;;;5.05;89.20;102289.13;5053581;28;20029;-69
2021/11/05 07:54:04;;;;;;;0.00;0.00;;;;;;;5.08;89.15;102297.13;5036779;28;20037;-68
2021/11/05 07:56:29;;;;;;;0.00;0.00;;;;;;;5.12;88.77;102300.84;5036945;28;20414;-68
2021/11/05 07:58:55;;;;;;;0.00;0.00;;;;;;;5.15;88.76;102296.78;5036729;28;20030;-68
2021/11/05 08:01:22;;;;;;;0.00;0.00;;;;;;;5.18;88.95;102297.00;5019467;28;20105;-67
2021/11/05 08:03:47;;;;;;;0.00;0.00;;;;;;;5.22;88.86;102305.91;5032944;28;20180;-67
2021/11/05 08:06:13;;;;;;;0.00;0.00;;;;;;;5.28;88.96;102308.09;5036024;28;20092;-67
2021/11/05 08:08:38;;;;;;;0.00;0.00;;;;;;;5.34;88.80;102314.63;5037465;28;20030;-67
2021/11/05 08:11:03;;;;;;;0.00;0.00;;;;;;;5.44;88.87;102323.09;5052625;28;20025;-68
2021/11/05 08:13:29;;;;;;;0.00;0.00;;;;;;;5.50;88.68;102318.34;5037206;28;20269;-67
2021/11/05 08:15:55;;;;;;;0.00;0.00;;;;;;;5.59;89.10;102318.09;5052629;28;20025;-67
2021/11/05 08:18:22;;;;;;;0.00;0.00;;;;;;;5.74;89.07;102329.59;5036056;28;20049;-67
2021/11/05 08:20:48;;;;;;;0.00;0.00;;;;;;;5.86;89.37;102334.78;5037583;28;20021;-68
2021/11/05 08:23:14;;;;;;;0.00;0.00;;;;;;;5.96;89.24;102325.03;5036884;28;20095;-68
2021/11/05 08:25:40;;;;;;;0.00;0.00;;;;;;;6.02;89.22;102331.63;5037017;28;20053;-68
2021/11/05 08:28:05;;;;;;;0.00;0.00;;;;;;;6.05;89.04;102333.53;5035951;28;20057;-68
2021/11/05 08:30:31;;;;;;;0.00;0.00;;;;;;;6.11;88.99;102341.75;5019459;28;20128;-68
2021/11/05 08:32:59;;;;;;;0.00;0.00;;;;;;;6.19;88.96;102350.13;5036334;28;20059;-68
2021/11/05 08:35:26;;;;;;;0.00;0.00;;;;;;;6.27;89.12;102354.16;5036175;28;20116;-67
2021/11/05 08:37:52;;;;;;;0.00;0.00;;;;;;;6.35;88.63;102353.81;5035855;28;20061;-68
2021/11/05 08:40:17;;;;;;;0.00;0.00;;;;;;;6.40;88.97;102352.41;5035514;28;20285;-69
2021/11/05 08:42:44;;;;;;;0.00;0.00;;;;;;;6.48;89.10;102363.34;5036998;28;20036;-68
2021/11/05 08:45:10;;;;;;;0.00;0.00;;;;;;;6.55;89.01;102369.09;5036715;28;20434;-68
2021/11/05 08:47:36;;;;;;;0.20;0.20;;;;;;;6.60;88.96;102366.78;5036503;28;20033;-68
2021/11/05 08:50:11;;;;;;;0.00;0.00;;;;;;;6.64;88.99;102368.81;5035709;28;20099;-69
2021/11/05 08:52:37;;;;;;;0.00;0.00;;;;;;;6.72;88.90;102377.16;5019848;28;20033;-67
2021/11/05 08:55:05;;;;;;;0.00;0.00;;;;;;;6.82;89.03;102382.22;5035659;28;20041;-68
2021/11/05 08:57:32;;;;;;;0.00;0.00;;;;;;;6.97;88.93;102379.75;5026900;28;20424;-68
2021/11/05 08:59:58;;;;;;;0.00;0.00;;;;;;;7.13;88.94;102388.59;5035471;28;20053;-68
2021/11/05 09:02:25;;;;;;;0.00;0.00;;;;;;;7.23;88.91;102392.72;5035873;28;20041;-68
2021/11/05 09:04:50;;;;;;;0.00;0.00;;;;;;;7.42;89.45;102393.13;5035181;28;20060;-67
2021/11/05 09:07:16;;;;;;;0.00;0.00;;;;;;;7.68;88.93;102387.84;5035927;28;20064;-68
2021/11/05 09:09:42;;;;;;;0.00;0.00;;;;;;;7.91;88.98;102402.34;5036018;28;20026;-68
2021/11/05 09:12:08;;;;;;;0.00;0.00;;;;;;;8.08;88.88;102399.91;5035493;28;20288;-68
2021/11/05 09:14:34;;;;;;;0.00;0.00;;;;;;;8.28;88.87;102415.94;5036811;28;20044;-67
2021/11/05 09:16:59;;;;;;;0.00;0.00;;;;;;;8.42;88.21;102411.59;5035883;28;20040;-66
2021/11/05 09:19:25;;;;;;;0.00;0.00;;;;;;;8.49;87.26;102413.78;5032326;28;20030;-67
2021/11/05 09:21:50;;;;;;;0.00;0.00;;;;;;;8.54;86.82;102414.09;5017283;28;20112;-66
2021/11/05 09:24:16;;;;;;;0.00;0.00;;;;;;;8.56;86.08;102422.91;5034783;28;20036;-66
2021/11/05 09:26:41;;;;;;;0.10;0.10;;;;;;;8.55;85.10;102424.63;5040389;28;20307;-66
2021/11/05 09:29:07;;;;;;;0.10;0.10;;;;;;;8.54;84.81;102433.28;5039265;28;20033;-66
2021/11/05 09:31:32;;;;;;;0.10;0.10;;;;;;;8.54;85.11;102428.06;5023118;28;20033;-66
2021/11/05 09:33:58;;;;;;;0.20;0.20;;;;;;;8.54;84.80;102438.50;5040240;28;20033;-66
2021/11/05 09:36:23;;;;;;;0.10;0.10;;;;;;;8.55;84.64;102439.38;5040383;28;20299;-65
2021/11/05 09:38:49;;;;;;;0.00;0.00;;;;;;;8.60;84.78;102445.81;5040190;28;20376;-65
2021/11/05 09:41:15;;;;;;;0.10;0.10;;;;;;;8.67;85.11;102445.38;5022318;28;20026;-68
2021/11/05 09:43:40;;;;;;;0.10;0.10;;;;;;;8.73;85.03;102455.31;5031202;28;20467;-68
2021/11/05 09:46:06;;;;;;;0.00;0.00;;;;;;;8.71;85.25;102451.69;5052516;28;20116;-67
2021/11/05 09:48:36;;;;;;;0.03;0.03;;;;;;;8.67;85.09;102463.66;5039875;28;20088;-67
2021/11/05 09:51:02;;;;;;;0.00;0.00;;;;;;;8.63;85.15;102456.44;5023279;28;20021;-67
2021/11/05 09:53:28;;;;;;;0.10;0.10;;;;;;;8.68;84.92;102468.09;5039004;28;20285;-68
2021/11/05 09:55:53;;;;;;;0.10;0.10;;;;;;;8.73;85.12;102477.09;5029007;28;20044;-66
2021/11/05 09:58:19;;;;;;;0.00;0.00;;;;;;;8.78;84.95;102477.41;5038052;28;20033;-66
2021/11/05 10:00:44;;;;;;;0.03;0.03;;;;;;;8.86;85.13;102480.47;5039147;28;20037;-66
2021/11/05 10:03:09;;;;;;;0.10;0.10;;;;;;;8.89;84.19;102484.16;5038901;28;20029;-65
2021/11/05 10:05:37;;;;;;;0.00;0.00;;;;;;;8.91;83.91;102482.56;5039480;28;20048;-66
2021/11/05 10:08:02;;;;;;;0.10;0.10;;;;;;;8.98;84.07;102481.25;5038575;28;20380;-66
2021/11/05 10:10:31;;;;;;;0.20;0.20;;;;;;;9.05;84.55;102493.84;5039556;28;20024;-66
2021/11/05 10:13:02;;;;;;;0.20;0.20;;;;;;;9.14;83.90;102498.75;5039033;28;20376;-66
2021/11/05 10:15:38;;;;;;;0.10;0.10;;;;;;;9.21;84.03;102497.38;5053571;28;20037;-66
2021/11/05 10:18:10;;;;;;;0.10;0.10;;;;;;;9.28;83.17;102494.34;5038692;28;20335;-65
2021/11/05 10:20:37;;;;;;;0.07;0.07;;;;;;;9.39;83.16;102500.22;5033718;28;20027;-65
2021/11/05 10:23:05;;;;;;;0.10;0.10;;;;;;;9.49;82.02;102502.56;5032615;28;20059;-65
2021/11/05 10:25:37;;;;;;;0.10;0.10;;;;;;;9.67;79.55;102495.72;5038596;28;20029;-64
2021/11/05 10:28:14;;;;;;;0.10;0.10;;;;;;;9.80;80.49;102507.78;5039431;28;20312;-64
2021/11/05 10:30:50;;;;;;;0.10;0.10;;;;;;;9.79;79.27;102506.91;5036178;28;20075;-63
2021/11/05 10:33:18;;;;;;;0.10;0.10;;;;;;;9.72;78.44;102508.25;5054061;28;20075;-64
2021/11/05 10:35:46;;;;;;;0.20;0.20;;;;;;;9.63;78.23;102510.31;5048764;28;20067;-64
2021/11/05 10:38:13;;;;;;;0.30;0.30;;;;;;;9.65;78.78;102520.88;5038488;28;20040;-63
2021/11/05 10:40:50;;;;;;;0.30;0.30;;;;;;;9.61;80.41;102523.31;5038841;28;20102;-63
2021/11/05 10:43:35;;;;;;;0.20;0.20;;;;;;;9.59;79.00;102513.59;5038406;28;20032;-63
2021/11/05 10:46:01;;;;;;;0.23;0.23;;;;;;;9.62;79.18;102513.75;5034759;28;20025;-63
2021/11/05 10:48:30;;;;;;;0.40;0.40;;;;;;;9.64;78.61;102525.22;5049061;28;20388;-63
2021/11/05 10:50:58;;;;;;;0.30;0.30;;;;;;;9.67;77.71;102517.56;5031143;28;20033;-64
2021/11/05 10:53:26;;;;;;;0.30;0.30;;;;;;;9.73;78.10;102520.50;5038986;28;20017;-63
2021/11/05 10:55:53;;;;;;;0.30;0.30;;;;;;;9.78;78.65;102526.00;5037804;28;20112;-64
2021/11/05 10:58:28;;;;;;;0.30;0.30;;;;;;;9.85;79.75;102533.41;5037308;28;20021;-63
2021/11/05 11:01:00;;;;;;;0.30;0.30;;;;;;;9.89;78.84;102524.03;5036332;28;20030;-64
2021/11/05 11:03:33;;;;;;;0.37;0.37;;;;;;;9.94;76.96;102533.06;5037223;28;20119;-64
2021/11/05 11:06:04;;;;;;;0.20;0.20;;;;;;;10.00;76.36;102529.88;5038419;28;20083;-63
2021/11/05 11:08:34;;;;;;;0.23;0.23;;;;;;;10.07;75.70;102537.28;5037896;28;20029;-63
2021/11/05 11:11:13;;;;;;;0.50;0.50;;;;;;;10.03;77.00;102538.81;5044605;28;20272;-64
2021/11/05 11:13:39;;;;;;;0.27;0.27;;;;;;;10.00;76.91;102533.41;5037885;28;20045;-64
2021/11/05 11:16:07;;;;;;;0.30;0.30;;;;;;;9.95;75.91;102544.44;5037699;28;20406;-63
2021/11/05 11:18:33;;;;;;;0.40;0.40;;;;;;;9.89;76.88;102538.03;5038152;28;20090;-64
2021/11/05 11:20:59;;;;;;;0.40;0.40;;;;;;;9.82;78.33;102551.56;5037112;28;20368;-63
2021/11/05 11:23:25;;;;;;;0.30;0.30;;;;;;;9.74;78.41;102550.19;5019801;28;20307;-63
2021/11/05 11:25:50;;;;;;;0.30;0.30;;;;;;;9.78;78.73;102551.28;5037266;28;20296;-64
2021/11/05 11:28:16;;;;;;;0.30;0.30;;;;;;;9.87;75.99;102544.88;5035510;28;20096;-63
2021/11/05 11:30:42;;;;;;;0.40;0.40;;;;;;;10.01;75.73;102555.25;5020260;28;20343;-63